createdAt,value
2023-05-25T00:01:03.597Z,8.90
2023-05-25T00:03:31.905Z,9.00
2023-05-25T00:06:01.666Z,9.00
2023-05-25T00:08:29.600Z,8.90
2023-05-25T00:10:56.494Z,8.90
2023-05-25T00:13:23.662Z,8.90
2023-05-25T00:15:50.643Z,8.80
2023-05-25T00:18:18.502Z,8.80
2023-05-25T00:20:47.435Z,8.80
2023-05-25T00:23:14.630Z,8.80
2023-05-25T00:25:41.532Z,8.70
2023-05-25T00:28:08.794Z,8.70
2023-05-25T00:30:35.575Z,8.70
2023-05-25T00:33:02.994Z,8.70
2023-05-25T00:35:30.978Z,8.60
2023-05-25T00:37:57.970Z,8.70
2023-05-25T00:40:26.035Z,8.60
2023-05-25T00:42:53.127Z,8.50
2023-05-25T00:45:19.990Z,8.60
2023-05-25T00:47:51.930Z,8.40
2023-05-25T00:50:30.368Z,8.50
2023-05-25T00:52:57.670Z,8.50
2023-05-25T00:55:30.135Z,8.40
2023-05-25T00:58:00.483Z,8.40
2023-05-25T01:00:30.531Z,8.50
2023-05-25T01:02:59.987Z,8.20
2023-05-25T01:05:29.268Z,8.30
2023-05-25T01:07:59.480Z,8.30
2023-05-25T01:10:28.624Z,8.30
2023-05-25T01:12:56.435Z,8.20
2023-05-25T01:15:23.957Z,8.20
2023-05-25T01:17:54.115Z,8.30
2023-05-25T01:20:21.428Z,8.10
2023-05-25T01:22:55.317Z,8.20
2023-05-25T01:25:29.600Z,8.20
2023-05-25T01:28:09.269Z,8.00
2023-05-25T01:30:38.132Z,8.20
2023-05-25T01:33:05.577Z,8.10
2023-05-25T01:35:33.973Z,8.10
2023-05-25T01:38:02.171Z,8.00
2023-05-25T01:40:29.251Z,8.00
2023-05-25T01:42:56.152Z,8.00
2023-05-25T01:45:23.608Z,8.00
2023-05-25T01:48:02.631Z,8.00
2023-05-25T01:51:02.662Z,7.90
2023-05-25T01:53:30.686Z,7.90
2023-05-25T01:56:03.284Z,7.90
2023-05-25T01:58:38.688Z,7.90
2023-05-25T02:01:07.129Z,7.80
2023-05-25T02:03:34.331Z,7.70
2023-05-25T02:06:01.433Z,7.50
2023-05-25T02:08:28.238Z,7.70
2023-05-25T02:10:55.005Z,7.80
2023-05-25T02:13:21.849Z,7.80
2023-05-25T02:15:48.716Z,7.70
2023-05-25T02:18:17.708Z,7.80
2023-05-25T02:20:45.198Z,7.70
2023-05-25T02:23:12.054Z,7.70
2023-05-25T02:25:38.991Z,7.60
2023-05-25T02:28:05.807Z,7.50
2023-05-25T02:30:32.663Z,7.50
2023-05-25T02:32:59.493Z,7.50
2023-05-25T02:35:26.334Z,7.30
2023-05-25T02:37:53.390Z,7.40
2023-05-25T02:40:20.540Z,7.50
2023-05-25T02:42:47.340Z,7.50
2023-05-25T02:45:14.202Z,7.50
2023-05-25T02:47:41.343Z,7.40
2023-05-25T02:50:08.787Z,7.40
2023-05-25T02:52:41.530Z,7.40
2023-05-25T02:55:10.363Z,7.40
2023-05-25T02:57:39.043Z,7.40
2023-05-25T03:00:08.387Z,7.40
2023-05-25T03:02:35.883Z,7.50
2023-05-25T03:05:04.324Z,7.40
2023-05-25T03:07:31.938Z,7.40
2023-05-25T03:09:59.529Z,7.40
2023-05-25T03:12:26.446Z,7.40
2023-05-25T03:14:53.214Z,7.30
2023-05-25T03:17:21.535Z,7.30
2023-05-25T03:19:48.463Z,7.20
2023-05-25T03:22:15.466Z,7.20
2023-05-25T03:24:42.281Z,7.20
2023-05-25T03:27:09.768Z,7.20
2023-05-25T03:29:36.580Z,7.20
2023-05-25T03:32:03.597Z,7.30
2023-05-25T03:34:35.314Z,7.10
2023-05-25T03:37:03.766Z,7.20
2023-05-25T03:39:30.814Z,7.20
2023-05-25T03:41:58.466Z,7.10
2023-05-25T03:44:25.670Z,7.20
2023-05-25T03:46:52.510Z,7.10
2023-05-25T03:49:19.352Z,7.10
2023-05-25T03:51:46.292Z,7.10
2023-05-25T03:54:13.752Z,7.10
2023-05-25T03:56:40.536Z,7.10
2023-05-25T03:59:07.361Z,7.10
2023-05-25T04:01:38.120Z,7.10
2023-05-25T04:04:06.569Z,7.20
2023-05-25T04:06:37.188Z,7.30
2023-05-25T04:09:04.945Z,7.30
2023-05-25T04:11:33.382Z,7.20
2023-05-25T04:14:00.249Z,7.20
2023-05-25T04:16:29.760Z,7.20
2023-05-25T04:18:57.179Z,7.40
2023-05-25T04:21:24.113Z,7.40
2023-05-25T04:23:51.102Z,7.50
2023-05-25T04:26:18.606Z,7.40
2023-05-25T04:28:48.288Z,7.50
2023-05-25T04:31:31.132Z,7.60
2023-05-25T04:34:23.335Z,7.60
2023-05-25T04:37:05.890Z,7.70
2023-05-25T04:39:33.974Z,7.70
2023-05-25T04:42:04.676Z,7.70
2023-05-25T04:44:33.878Z,7.70
2023-05-25T04:47:03.671Z,7.90
2023-05-25T04:49:34.029Z,7.90
2023-05-25T04:52:01.096Z,8.00
2023-05-25T04:54:29.834Z,8.10
2023-05-25T04:56:59.570Z,8.20
2023-05-25T04:59:26.451Z,8.20
2023-05-25T05:01:53.347Z,8.40
2023-05-25T05:04:20.739Z,8.40
2023-05-25T05:06:48.521Z,8.50
2023-05-25T05:09:19.286Z,8.50
2023-05-25T05:11:46.892Z,8.60
2023-05-25T05:14:13.833Z,8.70
2023-05-25T05:16:42.915Z,8.70
2023-05-25T05:19:10.020Z,9.50
2023-05-25T05:21:37.088Z,9.80
2023-05-25T05:24:06.283Z,9.70
2023-05-25T05:26:41.212Z,10.00
2023-05-25T05:29:20.580Z,9.90
2023-05-25T05:31:47.412Z,10.00
2023-05-25T05:34:14.520Z,10.00
2023-05-25T05:36:56.044Z,10.30
2023-05-25T05:39:24.668Z,10.40
2023-05-25T05:41:51.431Z,10.10
2023-05-25T05:44:25.181Z,10.00
2023-05-25T05:46:59.996Z,10.20
2023-05-25T05:49:31.645Z,10.20
2023-05-25T05:52:01.016Z,10.20
2023-05-25T05:54:28.275Z,10.30
2023-05-25T05:56:56.842Z,10.40
2023-05-25T05:59:24.183Z,10.50
2023-05-25T06:01:51.087Z,10.70
2023-05-25T06:04:19.338Z,11.00
2023-05-25T06:06:46.244Z,11.10
2023-05-25T06:09:13.803Z,11.30
2023-05-25T06:11:41.095Z,11.50
2023-05-25T06:14:08.966Z,11.30
2023-05-25T06:16:36.828Z,11.40
2023-05-25T06:19:03.849Z,11.40
2023-05-25T06:21:30.699Z,11.40
2023-05-25T06:24:00.624Z,11.50
2023-05-25T06:26:27.541Z,11.60
2023-05-25T06:28:54.991Z,11.70
2023-05-25T06:31:22.315Z,11.70
2023-05-25T06:33:49.098Z,11.90
2023-05-25T06:36:16.094Z,11.90
2023-05-25T06:38:44.032Z,12.00
2023-05-25T06:41:15.029Z,12.10
2023-05-25T06:43:42.747Z,12.20
2023-05-25T06:46:18.067Z,12.20
2023-05-25T06:48:46.252Z,12.30
2023-05-25T06:51:13.508Z,12.30
2023-05-25T06:53:40.652Z,12.50
2023-05-25T06:56:07.431Z,12.50
2023-05-25T06:58:34.236Z,12.60
2023-05-25T07:01:01.235Z,12.70
2023-05-25T07:03:28.112Z,12.80
2023-05-25T07:05:55.136Z,12.80
2023-05-25T07:08:21.913Z,12.90
2023-05-25T07:10:50.181Z,13.00
2023-05-25T07:13:17.492Z,13.10
2023-05-25T07:15:44.682Z,13.20
2023-05-25T07:18:12.505Z,13.20
2023-05-25T07:20:42.312Z,13.30
2023-05-25T07:23:12.509Z,13.40
2023-05-25T07:25:40.099Z,13.40
2023-05-25T07:28:07.998Z,13.50
2023-05-25T07:30:35.116Z,13.50
2023-05-25T07:33:02.118Z,13.70
2023-05-25T07:35:29.190Z,13.80
2023-05-25T07:37:57.798Z,13.90
2023-05-25T07:40:24.976Z,14.00
2023-05-25T07:42:51.903Z,14.10
2023-05-25T07:45:18.684Z,14.00
2023-05-25T07:47:45.553Z,14.10
2023-05-25T07:50:13.286Z,14.30
2023-05-25T07:52:40.205Z,14.40
2023-05-25T07:55:07.673Z,14.50
2023-05-25T07:57:34.558Z,14.50
2023-05-25T08:00:01.779Z,14.50
2023-05-25T08:02:28.886Z,14.80
2023-05-25T08:04:56.193Z,14.80
2023-05-25T08:07:24.906Z,14.90
2023-05-25T08:09:51.705Z,14.90
2023-05-25T08:14:48.409Z,15.10
2023-05-25T08:17:15.239Z,15.30
2023-05-25T08:19:42.159Z,15.50
2023-05-25T08:22:08.993Z,15.60
2023-05-25T08:24:36.158Z,15.60
2023-05-25T08:27:03.565Z,15.90
2023-05-25T08:29:31.227Z,15.80
2023-05-25T08:31:58.118Z,15.90
2023-05-25T08:34:24.900Z,16.00
2023-05-25T08:36:51.741Z,16.00
2023-05-25T08:39:18.855Z,16.10
2023-05-25T08:41:46.114Z,16.20
2023-05-25T08:44:14.516Z,16.20
2023-05-25T08:46:41.801Z,16.40
2023-05-25T08:49:10.886Z,16.60
2023-05-25T08:51:49.707Z,16.70
2023-05-25T08:54:19.999Z,16.80
2023-05-25T08:56:49.611Z,16.80
2023-05-25T08:59:41.758Z,17.00
2023-05-25T09:02:30.505Z,17.00
2023-05-25T09:05:01.290Z,17.00
2023-05-25T09:07:32.100Z,17.10
2023-05-25T09:10:01.266Z,17.20
2023-05-25T09:12:31.455Z,17.30
2023-05-25T09:14:59.737Z,17.50
2023-05-25T09:17:27.217Z,17.80
2023-05-25T09:19:54.855Z,17.80
2023-05-25T09:22:22.410Z,17.90
2023-05-25T09:24:49.489Z,17.90
2023-05-25T09:27:19.154Z,18.00
2023-05-25T09:29:50.138Z,17.90
2023-05-25T09:32:18.425Z,18.00
2023-05-25T09:34:46.783Z,18.20
2023-05-25T09:37:19.381Z,18.30
2023-05-25T09:39:48.648Z,18.40
2023-05-25T09:42:15.708Z,18.30
2023-05-25T09:44:45.631Z,18.50
2023-05-25T09:47:14.089Z,18.70
2023-05-25T09:49:41.975Z,18.80
2023-05-25T09:52:09.162Z,18.80
2023-05-25T09:54:38.454Z,18.90
2023-05-25T09:57:06.087Z,18.80
2023-05-25T09:59:32.872Z,18.90
2023-05-25T10:01:59.829Z,18.80
2023-05-25T10:04:26.964Z,19.00
2023-05-25T10:06:54.247Z,19.20
2023-05-25T10:09:21.595Z,19.40
2023-05-25T10:11:52.548Z,19.30
2023-05-25T10:14:29.634Z,19.60
2023-05-25T10:16:59.763Z,19.80
2023-05-25T10:19:41.356Z,19.70
2023-05-25T10:22:46.952Z,19.70
2023-05-25T10:25:21.522Z,19.70
2023-05-25T10:27:57.509Z,19.80
2023-05-25T10:30:27.795Z,19.80
2023-05-25T10:32:58.031Z,19.70
2023-05-25T10:35:25.278Z,20.10
2023-05-25T10:37:53.143Z,20.10
2023-05-25T10:40:22.551Z,20.10
2023-05-25T10:42:52.469Z,20.30
2023-05-25T10:45:20.233Z,20.30
2023-05-25T10:47:47.143Z,20.30
2023-05-25T10:50:24.236Z,20.40
2023-05-25T10:53:08.164Z,20.50
2023-05-25T10:55:53.421Z,20.60
2023-05-25T10:58:26.852Z,20.90
2023-05-25T11:01:11.591Z,20.90
2023-05-25T11:03:44.712Z,20.80
2023-05-25T11:06:13.788Z,21.10
2023-05-25T11:08:56.240Z,21.10
2023-05-25T11:11:43.022Z,21.50
2023-05-25T11:14:31.195Z,21.00
2023-05-25T11:17:18.188Z,21.10
2023-05-25T11:19:54.031Z,21.40
2023-05-25T11:22:31.913Z,21.50
2023-05-25T11:25:00.521Z,21.70
2023-05-25T11:27:29.389Z,21.80
2023-05-25T11:29:58.249Z,21.80
2023-05-25T11:32:26.515Z,21.80
2023-05-25T11:34:54.857Z,22.00
2023-05-25T11:37:28.592Z,22.00
2023-05-25T11:39:55.579Z,21.90
2023-05-25T11:42:24.113Z,21.90
2023-05-25T11:44:51.373Z,21.90
2023-05-25T11:47:23.001Z,22.10
2023-05-25T11:49:50.140Z,22.30
2023-05-25T11:52:18.428Z,22.30
2023-05-25T11:54:46.419Z,22.30
2023-05-25T11:57:22.537Z,22.40
2023-05-25T11:59:57.599Z,22.50
2023-05-25T12:02:24.704Z,22.60
2023-05-25T12:04:56.092Z,22.90
2023-05-25T12:07:23.526Z,23.00
2023-05-25T12:09:50.364Z,23.00
2023-05-25T12:12:17.594Z,22.90
2023-05-25T12:14:48.546Z,23.10
2023-05-25T12:17:21.232Z,23.30
2023-05-25T12:19:48.482Z,23.20
2023-05-25T12:22:16.314Z,23.50
2023-05-25T12:24:43.954Z,23.60
2023-05-25T12:27:18.057Z,23.40
2023-05-25T12:29:48.587Z,23.40
2023-05-25T12:32:16.396Z,23.60
2023-05-25T12:34:43.263Z,23.50
2023-05-25T12:37:19.957Z,23.50
2023-05-25T12:39:47.384Z,23.70
2023-05-25T12:42:15.899Z,23.70
2023-05-25T12:44:44.305Z,23.90
2023-05-25T12:47:28.604Z,23.80
2023-05-25T12:50:13.132Z,24.00
2023-05-25T12:52:42.735Z,23.80
2023-05-25T12:55:25.858Z,23.80
2023-05-25T12:57:54.037Z,24.10
2023-05-25T13:00:22.153Z,23.90
2023-05-25T13:02:50.430Z,23.90
2023-05-25T13:05:25.395Z,24.10
2023-05-25T13:07:53.686Z,24.20
2023-05-25T13:10:20.801Z,24.30
2023-05-25T13:12:48.506Z,24.50
2023-05-25T13:15:17.655Z,24.70
2023-05-25T13:17:45.118Z,24.60
2023-05-25T13:20:13.484Z,24.70
2023-05-25T13:22:41.920Z,24.80
2023-05-25T13:25:09.606Z,24.90
2023-05-25T13:27:38.003Z,24.70
2023-05-25T13:30:08.474Z,24.70
2023-05-25T13:32:35.351Z,24.90
2023-05-25T13:35:04.514Z,25.00
2023-05-25T13:37:32.975Z,24.80
2023-05-25T13:40:01.006Z,25.10
2023-05-25T13:42:27.827Z,24.90
2023-05-25T13:44:54.896Z,24.70
2023-05-25T13:47:21.843Z,24.80
2023-05-25T13:49:48.745Z,24.90
2023-05-25T13:52:15.593Z,24.80
2023-05-25T13:54:42.408Z,24.90
2023-05-25T13:57:09.171Z,25.10
2023-05-25T13:59:35.943Z,24.80
2023-05-25T14:02:03.584Z,25.10
2023-05-25T14:04:30.481Z,25.20
2023-05-25T14:06:57.232Z,25.10
2023-05-25T14:09:24.175Z,25.20
2023-05-25T14:11:53.603Z,25.30
2023-05-25T14:14:30.743Z,25.30
2023-05-25T14:16:58.556Z,25.30
2023-05-25T14:19:25.361Z,25.30
2023-05-25T14:22:11.191Z,25.20
2023-05-25T14:24:39.225Z,25.10
2023-05-25T14:27:07.457Z,25.40
2023-05-25T14:29:34.483Z,25.40
2023-05-25T14:32:01.775Z,25.40
2023-05-25T14:34:29.931Z,25.60
2023-05-25T14:36:56.874Z,25.70
2023-05-25T14:39:23.878Z,25.60
2023-05-25T14:41:50.853Z,25.70
2023-05-25T14:44:17.680Z,25.50
2023-05-25T14:46:44.680Z,25.30
2023-05-25T14:49:11.644Z,25.30
2023-05-25T14:51:38.544Z,25.50
2023-05-25T14:54:07.924Z,25.20
2023-05-25T14:56:35.042Z,25.40
2023-05-25T14:59:02.132Z,25.50
2023-05-25T15:01:29.485Z,25.40
2023-05-25T15:03:56.701Z,25.00
2023-05-25T15:06:23.743Z,25.30
2023-05-25T15:08:51.012Z,25.40
2023-05-25T15:11:18.739Z,25.50
2023-05-25T15:13:46.015Z,25.10
2023-05-25T15:16:16.918Z,25.00
2023-05-25T15:18:44.426Z,25.30
2023-05-25T15:21:11.536Z,25.00
2023-05-25T15:23:38.398Z,25.20
2023-05-25T15:26:07.581Z,25.40
2023-05-25T15:28:34.612Z,25.40
2023-05-25T15:31:02.794Z,25.20
2023-05-25T15:33:44.125Z,25.10
2023-05-25T15:36:16.844Z,24.90
2023-05-25T15:38:44.690Z,25.00
2023-05-25T15:41:16.129Z,24.90
2023-05-25T15:43:49.827Z,25.00
2023-05-25T15:46:16.818Z,24.90
2023-05-25T15:48:43.772Z,24.80
2023-05-25T15:51:11.046Z,24.70
2023-05-25T15:53:37.911Z,24.80
2023-05-25T15:56:04.674Z,25.00
2023-05-25T15:58:34.207Z,24.80
2023-05-25T16:01:01.710Z,24.90
2023-05-25T16:03:29.539Z,25.00
2023-05-25T16:05:56.575Z,24.80
2023-05-25T16:08:23.774Z,24.80
2023-05-25T16:10:50.679Z,24.90
2023-05-25T16:13:17.484Z,24.60
2023-05-25T16:15:44.808Z,24.60
2023-05-25T16:18:12.306Z,24.60
2023-05-25T16:20:39.324Z,24.70
2023-05-25T16:23:06.455Z,24.50
2023-05-25T16:25:33.754Z,24.40
2023-05-25T16:28:00.609Z,24.20
2023-05-25T16:30:27.421Z,24.40
2023-05-25T16:32:54.313Z,24.40
2023-05-25T16:35:21.613Z,24.30
2023-05-25T16:37:48.424Z,24.00
2023-05-25T16:40:15.205Z,24.10
2023-05-25T16:42:41.977Z,23.90
2023-05-25T16:45:09.179Z,24.10
2023-05-25T16:47:36.120Z,23.80
2023-05-25T16:50:02.958Z,23.80
2023-05-25T16:52:30.332Z,23.70
2023-05-25T16:54:59.111Z,23.60
2023-05-25T16:57:26.072Z,23.60
2023-05-25T16:59:53.784Z,23.50
2023-05-25T17:02:20.764Z,23.40
2023-05-25T17:04:47.557Z,23.50
2023-05-25T17:07:14.409Z,23.30
2023-05-25T17:09:41.560Z,23.40
2023-05-25T17:12:08.503Z,23.40
2023-05-25T17:14:35.343Z,23.30
2023-05-25T17:17:02.052Z,23.20
2023-05-25T17:19:29.063Z,23.30
2023-05-25T17:21:56.015Z,23.40
2023-05-25T17:24:22.770Z,23.40
2023-05-25T17:26:51.416Z,23.20
2023-05-25T17:29:18.264Z,23.00
2023-05-25T17:31:48.541Z,23.00
2023-05-25T17:34:16.272Z,22.90
2023-05-25T17:36:43.298Z,22.80
2023-05-25T17:39:10.147Z,22.80
2023-05-25T17:41:37.223Z,22.80
2023-05-25T17:44:04.113Z,22.70
2023-05-25T17:46:31.360Z,22.60
2023-05-25T17:48:58.198Z,22.70
2023-05-25T17:51:25.040Z,22.60
2023-05-25T17:53:52.027Z,22.60
2023-05-25T17:56:18.817Z,22.20
2023-05-25T17:58:47.786Z,22.20
2023-05-25T18:01:15.623Z,22.10
2023-05-25T18:03:42.944Z,22.00
2023-05-25T18:06:10.416Z,22.00
2023-05-25T18:08:37.211Z,22.10
2023-05-25T18:11:04.136Z,21.80
2023-05-25T18:13:31.006Z,21.70
2023-05-25T18:15:57.801Z,21.80
2023-05-25T18:18:24.903Z,21.80
2023-05-25T18:20:51.970Z,21.90
2023-05-25T18:23:18.801Z,21.70
2023-05-25T18:25:46.102Z,21.60
2023-05-25T18:28:15.231Z,21.50
2023-05-25T18:30:45.450Z,21.30
2023-05-25T18:33:12.632Z,21.50
2023-05-25T18:35:39.892Z,21.30
2023-05-25T18:38:06.962Z,21.30
2023-05-25T18:40:33.760Z,21.10
2023-05-25T18:43:00.568Z,21.20
2023-05-25T18:45:27.598Z,21.10
2023-05-25T18:47:54.581Z,21.00
2023-05-25T18:50:21.588Z,21.00
2023-05-25T18:52:51.101Z,20.90
2023-05-25T18:55:18.899Z,20.70
2023-05-25T18:57:45.827Z,20.80
2023-05-25T19:00:13.540Z,20.60
2023-05-25T19:02:40.826Z,20.50
2023-05-25T19:05:08.475Z,20.50
2023-05-25T19:07:44.167Z,20.50
2023-05-25T19:10:17.753Z,20.30
2023-05-25T19:12:44.761Z,20.20
2023-05-25T19:15:11.638Z,20.20
2023-05-25T19:17:38.395Z,20.10
2023-05-25T19:20:05.982Z,20.00
2023-05-25T19:22:32.800Z,19.80
2023-05-25T19:25:01.007Z,19.50
2023-05-25T19:27:28.175Z,19.30
2023-05-25T19:29:54.958Z,19.10
2023-05-25T19:32:21.759Z,18.90
2023-05-25T19:34:48.646Z,18.80
2023-05-25T19:37:15.459Z,18.60
2023-05-25T19:39:42.410Z,18.40
2023-05-25T19:42:09.423Z,18.20
2023-05-25T19:44:36.456Z,18.20
2023-05-25T19:47:03.336Z,18.00
2023-05-25T19:49:30.121Z,18.20
2023-05-25T19:51:57.035Z,17.80
2023-05-25T19:54:24.488Z,17.70
2023-05-25T19:56:51.680Z,17.80
2023-05-25T19:59:18.603Z,17.70
2023-05-25T20:01:45.725Z,17.40
2023-05-25T20:04:12.734Z,17.30
2023-05-25T20:06:39.546Z,17.20
2023-05-25T20:09:07.737Z,17.00
2023-05-25T20:11:34.579Z,17.10
2023-05-25T20:14:01.384Z,17.00
2023-05-25T20:16:28.186Z,16.90
2023-05-25T20:18:55.011Z,16.80
2023-05-25T20:21:21.818Z,16.60
2023-05-25T20:23:48.606Z,16.50
2023-05-25T20:26:15.507Z,16.50
2023-05-25T20:28:42.476Z,16.40
2023-05-25T20:31:09.461Z,16.50
2023-05-25T20:33:36.549Z,16.30
2023-05-25T20:36:03.323Z,15.90
2023-05-25T20:38:30.147Z,16.20
2023-05-25T20:40:56.945Z,16.00
2023-05-25T20:43:23.704Z,15.70
2023-05-25T20:45:50.590Z,15.80
2023-05-25T20:48:17.387Z,15.90
2023-05-25T20:50:44.250Z,15.90
2023-05-25T20:53:11.636Z,15.80
2023-05-25T20:55:38.496Z,15.80
2023-05-25T20:58:05.281Z,15.80
2023-05-25T21:00:32.089Z,15.70
2023-05-25T21:02:59.076Z,15.50
2023-05-25T21:05:26.093Z,15.70
2023-05-25T21:07:52.914Z,15.50
2023-05-25T21:10:19.708Z,15.40
2023-05-25T21:12:46.486Z,15.50
2023-05-25T21:15:13.282Z,15.60
2023-05-25T21:17:40.136Z,15.40
2023-05-25T21:20:07.898Z,15.40
2023-05-25T21:22:34.756Z,15.50
2023-05-25T21:25:01.605Z,15.30
2023-05-25T21:27:28.363Z,15.30
2023-05-25T21:29:55.502Z,15.20
2023-05-25T21:32:22.359Z,15.10
2023-05-25T21:34:49.259Z,15.30
2023-05-25T21:37:16.033Z,15.40
2023-05-25T21:39:44.051Z,15.60
2023-05-25T21:42:10.866Z,15.60
2023-05-25T21:44:38.186Z,15.60
2023-05-25T21:47:05.281Z,15.40
2023-05-25T21:49:32.208Z,15.40
2023-05-25T21:51:59.025Z,15.40
2023-05-25T21:54:26.096Z,15.20
2023-05-25T21:56:53.953Z,15.30
2023-05-25T21:59:20.845Z,15.30
2023-05-25T22:01:47.720Z,15.20
2023-05-25T22:04:14.511Z,15.10
2023-05-25T22:06:41.379Z,14.90
2023-05-25T22:09:08.460Z,15.00
2023-05-25T22:11:35.300Z,14.60
2023-05-25T22:14:03.109Z,14.80
2023-05-25T22:16:29.908Z,14.70
2023-05-25T22:18:56.681Z,14.70
2023-05-25T22:21:23.853Z,14.50
2023-05-25T22:23:50.695Z,14.40
2023-05-25T22:26:17.712Z,14.30
2023-05-25T22:28:44.447Z,14.30
2023-05-25T22:31:11.567Z,14.50
2023-05-25T22:33:38.453Z,14.40
2023-05-25T22:36:05.463Z,14.40
2023-05-25T22:38:32.325Z,14.20
2023-05-25T22:40:59.119Z,14.20
2023-05-25T22:43:26.964Z,14.10
2023-05-25T22:45:54.284Z,14.00
2023-05-25T22:48:21.824Z,14.10
2023-05-25T22:50:48.663Z,14.00
2023-05-25T22:53:15.915Z,13.90
2023-05-25T22:55:44.568Z,13.90
2023-05-25T22:58:13.432Z,13.50
2023-05-25T23:00:40.216Z,13.60
2023-05-25T23:03:07.059Z,13.80
2023-05-25T23:05:33.809Z,13.80
2023-05-25T23:08:00.638Z,13.80
2023-05-25T23:10:27.496Z,13.60
2023-05-25T23:12:54.738Z,13.50
2023-05-25T23:15:22.700Z,13.60
2023-05-25T23:17:49.620Z,13.60
2023-05-25T23:20:16.546Z,13.70
2023-05-25T23:22:43.492Z,13.80
2023-05-25T23:25:10.649Z,13.80
2023-05-25T23:27:37.725Z,13.70
2023-05-25T23:30:06.533Z,13.70
2023-05-25T23:32:33.583Z,13.90
2023-05-25T23:35:00.746Z,13.70
2023-05-25T23:37:28.486Z,13.60
2023-05-25T23:39:55.439Z,13.50
2023-05-25T23:42:22.253Z,13.40
2023-05-25T23:44:49.461Z,13.30
2023-05-25T23:47:16.391Z,13.20
2023-05-25T23:49:43.508Z,13.20
2023-05-25T23:52:10.446Z,13.40
2023-05-25T23:54:37.247Z,13.30
2023-05-25T23:57:04.069Z,13.20
2023-05-25T23:59:30.893Z,13.10
